sensor_id;sensor_type;location;lat;lon;timestamp;temperature;humidity
13982;DHT22;7065;50.880;5.502;2023-06-26T00:01:17;21.20;99.90
13982;DHT22;7065;50.880;5.502;2023-06-26T00:03:46;21.10;99.90
13982;DHT22;7065;50.880;5.502;2023-06-26T00:06:12;20.90;99.90
13982;DHT22;7065;50.880;5.502;2023-06-26T00:08:38;20.80;99.90
13982;DHT22;7065;50.880;5.502;2023-06-26T00:11:03;20.70;99.90
13982;DHT22;7065;50.880;5.502;2023-06-26T00:13:29;20.60;99.90
13982;DHT22;7065;50.880;5.502;2023-06-26T00:15:55;20.90;99.90
13982;DHT22;7065;50.880;5.502;2023-06-26T00:18:20;21.10;99.90
13982;DHT22;7065;50.880;5.502;2023-06-26T00:20:46;21.40;99.90
13982;DHT22;7065;50.880;5.502;2023-06-26T00:23:12;21.50;99.90
13982;DHT22;7065;50.880;5.502;2023-06-26T00:25:38;21.60;99.90
13982;DHT22;7065;50.880;5.502;2023-06-26T00:28:04;21.70;99.90
13982;DHT22;7065;50.880;5.502;2023-06-26T00:30:30;21.80;99.90
13982;DHT22;7065;50.880;5.502;2023-06-26T00:32:56;21.80;99.90
13982;DHT22;7065;50.880;5.502;2023-06-26T00:35:22;21.80;99.90
13982;DHT22;7065;50.880;5.502;2023-06-26T00:37:47;21.80;99.90
13982;DHT22;7065;50.880;5.502;2023-06-26T00:40:13;21.80;99.90
13982;DHT22;7065;50.880;5.502;2023-06-26T00:42:39;21.80;99.90
13982;DHT22;7065;50.880;5.502;2023-06-26T00:45:05;21.80;99.90
13982;DHT22;7065;50.880;5.502;2023-06-26T00:47:31;21.70;99.90
13982;DHT22;7065;50.880;5.502;2023-06-26T00:49:57;21.70;99.90
13982;DHT22;7065;50.880;5.502;2023-06-26T00:52:23;21.70;99.90
13982;DHT22;7065;50.880;5.502;2023-06-26T00:54:49;21.70;99.90
13982;DHT22;7065;50.880;5.502;2023-06-26T00:57:17;21.60;99.90
13982;DHT22;7065;50.880;5.502;2023-06-26T00:59:43;21.60;99.90
13982;DHT22;7065;50.880;5.502;2023-06-26T01:02:10;21.60;99.90
13982;DHT22;7065;50.880;5.502;2023-06-26T01:04:36;21.50;99.90
13982;DHT22;7065;50.880;5.502;2023-06-26T01:07:02;21.50;99.90
13982;DHT22;7065;50.880;5.502;2023-06-26T01:09:29;21.40;99.90
13982;DHT22;7065;50.880;5.502;2023-06-26T01:11:57;21.40;99.90
13982;DHT22;7065;50.880;5.502;2023-06-26T01:14:23;21.30;99.90
13982;DHT22;7065;50.880;5.502;2023-06-26T01:16:49;21.20;99.90
13982;DHT22;7065;50.880;5.502;2023-06-26T01:19:24;21.20;99.90
13982;DHT22;7065;50.880;5.502;2023-06-26T01:22:05;21.10;99.90
13982;DHT22;7065;50.880;5.502;2023-06-26T01:24:45;21.10;99.90
13982;DHT22;7065;50.880;5.502;2023-06-26T01:27:18;21.10;99.90
13982;DHT22;7065;50.880;5.502;2023-06-26T01:29:45;21.10;99.90
13982;DHT22;7065;50.880;5.502;2023-06-26T01:32:12;21.00;99.90
13982;DHT22;7065;50.880;5.502;2023-06-26T01:34:37;21.00;99.90
13982;DHT22;7065;50.880;5.502;2023-06-26T01:37:03;20.90;99.90
13982;DHT22;7065;50.880;5.502;2023-06-26T01:39:29;20.80;99.90
13982;DHT22;7065;50.880;5.502;2023-06-26T01:41:55;20.80;99.90
13982;DHT22;7065;50.880;5.502;2023-06-26T01:44:29;20.80;99.90
13982;DHT22;7065;50.880;5.502;2023-06-26T01:47:05;20.70;99.90
13982;DHT22;7065;50.880;5.502;2023-06-26T01:49:33;20.60;99.90
13982;DHT22;7065;50.880;5.502;2023-06-26T01:52:09;20.60;99.90
13982;DHT22;7065;50.880;5.502;2023-06-26T01:54:49;20.60;99.90
13982;DHT22;7065;50.880;5.502;2023-06-26T01:57:18;20.50;99.90
13982;DHT22;7065;50.880;5.502;2023-06-26T01:59:46;20.60;99.90
13982;DHT22;7065;50.880;5.502;2023-06-26T02:02:12;20.60;99.90
13982;DHT22;7065;50.880;5.502;2023-06-26T02:04:38;20.50;99.90
13982;DHT22;7065;50.880;5.502;2023-06-26T02:07:04;20.50;99.90
13982;DHT22;7065;50.880;5.502;2023-06-26T02:09:29;20.50;99.90
13982;DHT22;7065;50.880;5.502;2023-06-26T02:11:55;20.40;99.90
13982;DHT22;7065;50.880;5.502;2023-06-26T02:14:21;20.40;99.90
13982;DHT22;7065;50.880;5.502;2023-06-26T02:16:46;20.40;99.90
13982;DHT22;7065;50.880;5.502;2023-06-26T02:19:12;20.40;99.90
13982;DHT22;7065;50.880;5.502;2023-06-26T02:21:38;20.30;99.90
13982;DHT22;7065;50.880;5.502;2023-06-26T02:24:05;20.30;99.90
13982;DHT22;7065;50.880;5.502;2023-06-26T02:26:30;20.30;99.90
13982;DHT22;7065;50.880;5.502;2023-06-26T02:28:56;20.20;99.90
13982;DHT22;7065;50.880;5.502;2023-06-26T02:31:22;20.20;99.90
13982;DHT22;7065;50.880;5.502;2023-06-26T02:33:48;20.10;99.90
13982;DHT22;7065;50.880;5.502;2023-06-26T02:36:15;20.10;99.90
13982;DHT22;7065;50.880;5.502;2023-06-26T02:38:40;20.10;99.90
13982;DHT22;7065;50.880;5.502;2023-06-26T02:41:06;20.00;99.90
13982;DHT22;7065;50.880;5.502;2023-06-26T02:43:32;20.00;99.90
13982;DHT22;7065;50.880;5.502;2023-06-26T02:45:57;20.00;99.90
13982;DHT22;7065;50.880;5.502;2023-06-26T02:48:23;19.90;99.90
13982;DHT22;7065;50.880;5.502;2023-06-26T02:50:49;19.90;99.90
13982;DHT22;7065;50.880;5.502;2023-06-26T02:53:14;19.90;99.90
13982;DHT22;7065;50.880;5.502;2023-06-26T02:55:41;19.80;99.90
13982;DHT22;7065;50.880;5.502;2023-06-26T02:58:06;19.80;99.90
13982;DHT22;7065;50.880;5.502;2023-06-26T03:00:32;19.70;99.90
13982;DHT22;7065;50.880;5.502;2023-06-26T03:02:58;19.70;99.90
13982;DHT22;7065;50.880;5.502;2023-06-26T03:05:24;19.70;99.90
13982;DHT22;7065;50.880;5.502;2023-06-26T03:07:49;19.60;99.90
13982;DHT22;7065;50.880;5.502;2023-06-26T03:10:15;19.60;99.90
13982;DHT22;7065;50.880;5.502;2023-06-26T03:12:41;19.60;99.90
13982;DHT22;7065;50.880;5.502;2023-06-26T03:15:07;19.50;99.90
13982;DHT22;7065;50.880;5.502;2023-06-26T03:17:33;19.50;99.90
13982;DHT22;7065;50.880;5.502;2023-06-26T03:19:59;19.50;99.90
13982;DHT22;7065;50.880;5.502;2023-06-26T03:22:25;19.40;99.90
13982;DHT22;7065;50.880;5.502;2023-06-26T03:24:51;19.40;99.90
13982;DHT22;7065;50.880;5.502;2023-06-26T03:27:17;19.40;99.90
13982;DHT22;7065;50.880;5.502;2023-06-26T03:29:42;19.40;99.90
13982;DHT22;7065;50.880;5.502;2023-06-26T03:32:09;19.30;99.90
13982;DHT22;7065;50.880;5.502;2023-06-26T03:34:35;19.20;99.90
13982;DHT22;7065;50.880;5.502;2023-06-26T03:37:01;19.20;99.90
13982;DHT22;7065;50.880;5.502;2023-06-26T03:39:27;19.20;99.90
13982;DHT22;7065;50.880;5.502;2023-06-26T03:41:53;19.20;99.90
13982;DHT22;7065;50.880;5.502;2023-06-26T03:44:22;19.10;99.90
13982;DHT22;7065;50.880;5.502;2023-06-26T03:46:47;19.10;99.90
13982;DHT22;7065;50.880;5.502;2023-06-26T03:49:13;19.00;99.90
13982;DHT22;7065;50.880;5.502;2023-06-26T03:51:39;19.00;99.90
13982;DHT22;7065;50.880;5.502;2023-06-26T03:54:05;18.90;99.90
13982;DHT22;7065;50.880;5.502;2023-06-26T03:56:31;18.90;99.90
13982;DHT22;7065;50.880;5.502;2023-06-26T03:58:56;18.90;99.90
13982;DHT22;7065;50.880;5.502;2023-06-26T04:01:22;18.80;99.90
13982;DHT22;7065;50.880;5.502;2023-06-26T04:03:48;18.80;99.90
13982;DHT22;7065;50.880;5.502;2023-06-26T04:06:14;18.80;99.90
13982;DHT22;7065;50.880;5.502;2023-06-26T04:08:39;18.70;99.90
13982;DHT22;7065;50.880;5.502;2023-06-26T04:11:05;18.70;99.90
13982;DHT22;7065;50.880;5.502;2023-06-26T04:13:31;18.70;99.90
13982;DHT22;7065;50.880;5.502;2023-06-26T04:15:56;18.70;99.90
13982;DHT22;7065;50.880;5.502;2023-06-26T04:18:22;18.70;99.90
13982;DHT22;7065;50.880;5.502;2023-06-26T04:21:07;18.70;99.90
13982;DHT22;7065;50.880;5.502;2023-06-26T04:23:33;18.70;99.90
13982;DHT22;7065;50.880;5.502;2023-06-26T04:25:59;18.60;99.90
13982;DHT22;7065;50.880;5.502;2023-06-26T04:28:25;18.60;99.90
13982;DHT22;7065;50.880;5.502;2023-06-26T04:30:51;18.60;99.90
13982;DHT22;7065;50.880;5.502;2023-06-26T04:33:17;18.60;99.90
13982;DHT22;7065;50.880;5.502;2023-06-26T04:35:43;18.70;99.90
13982;DHT22;7065;50.880;5.502;2023-06-26T04:38:14;18.70;99.90
13982;DHT22;7065;50.880;5.502;2023-06-26T04:40:41;18.70;99.90
13982;DHT22;7065;50.880;5.502;2023-06-26T04:43:06;18.70;99.90
13982;DHT22;7065;50.880;5.502;2023-06-26T04:45:33;18.70;99.90
13982;DHT22;7065;50.880;5.502;2023-06-26T04:47:58;18.70;99.90
13982;DHT22;7065;50.880;5.502;2023-06-26T04:50:25;18.70;99.90
13982;DHT22;7065;50.880;5.502;2023-06-26T04:52:51;18.70;99.90
13982;DHT22;7065;50.880;5.502;2023-06-26T04:55:17;18.60;99.90
13982;DHT22;7065;50.880;5.502;2023-06-26T04:57:43;18.70;99.90
13982;DHT22;7065;50.880;5.502;2023-06-26T05:00:09;18.70;99.90
13982;DHT22;7065;50.880;5.502;2023-06-26T05:02:35;18.70;99.90
13982;DHT22;7065;50.880;5.502;2023-06-26T05:05:01;18.70;99.90
13982;DHT22;7065;50.880;5.502;2023-06-26T05:07:26;18.70;99.90
13982;DHT22;7065;50.880;5.502;2023-06-26T05:09:52;18.70;99.90
13982;DHT22;7065;50.880;5.502;2023-06-26T05:12:18;18.60;99.90
13982;DHT22;7065;50.880;5.502;2023-06-26T05:14:44;18.70;99.90
13982;DHT22;7065;50.880;5.502;2023-06-26T05:17:10;18.70;99.90
13982;DHT22;7065;50.880;5.502;2023-06-26T05:19:36;18.70;99.90
13982;DHT22;7065;50.880;5.502;2023-06-26T05:22:02;18.70;99.90
13982;DHT22;7065;50.880;5.502;2023-06-26T05:24:35;18.80;99.90
13982;DHT22;7065;50.880;5.502;2023-06-26T05:27:02;18.70;99.90
13982;DHT22;7065;50.880;5.502;2023-06-26T05:29:30;18.80;99.90
13982;DHT22;7065;50.880;5.502;2023-06-26T05:31:56;18.80;99.90
13982;DHT22;7065;50.880;5.502;2023-06-26T05:34:23;18.80;99.90
13982;DHT22;7065;50.880;5.502;2023-06-26T05:36:51;18.80;99.90
13982;DHT22;7065;50.880;5.502;2023-06-26T05:39:17;18.80;99.90
13982;DHT22;7065;50.880;5.502;2023-06-26T05:41:44;18.80;99.90
13982;DHT22;7065;50.880;5.502;2023-06-26T05:44:10;18.80;99.90
13982;DHT22;7065;50.880;5.502;2023-06-26T05:46:35;18.80;99.90
13982;DHT22;7065;50.880;5.502;2023-06-26T05:49:01;18.80;99.90
13982;DHT22;7065;50.880;5.502;2023-06-26T05:51:28;18.90;99.90
13982;DHT22;7065;50.880;5.502;2023-06-26T05:53:54;18.90;99.90
13982;DHT22;7065;50.880;5.502;2023-06-26T05:56:20;18.90;99.90
13982;DHT22;7065;50.880;5.502;2023-06-26T05:58:47;18.90;99.90
13982;DHT22;7065;50.880;5.502;2023-06-26T06:01:12;18.90;99.90
13982;DHT22;7065;50.880;5.502;2023-06-26T06:03:39;19.00;99.90
13982;DHT22;7065;50.880;5.502;2023-06-26T06:06:05;19.00;99.90
13982;DHT22;7065;50.880;5.502;2023-06-26T06:08:31;19.00;99.90
13982;DHT22;7065;50.880;5.502;2023-06-26T06:10:56;19.20;99.90
13982;DHT22;7065;50.880;5.502;2023-06-26T06:13:22;19.30;99.90
13982;DHT22;7065;50.880;5.502;2023-06-26T06:15:48;19.30;99.90
13982;DHT22;7065;50.880;5.502;2023-06-26T06:18:14;19.30;99.90
13982;DHT22;7065;50.880;5.502;2023-06-26T06:20:40;19.30;99.90
13982;DHT22;7065;50.880;5.502;2023-06-26T06:23:05;19.30;99.90
13982;DHT22;7065;50.880;5.502;2023-06-26T06:25:31;19.30;99.90
13982;DHT22;7065;50.880;5.502;2023-06-26T06:27:57;19.30;99.90
13982;DHT22;7065;50.880;5.502;2023-06-26T06:30:23;19.30;99.90
13982;DHT22;7065;50.880;5.502;2023-06-26T06:32:49;19.30;99.90
13982;DHT22;7065;50.880;5.502;2023-06-26T06:35:18;19.30;99.90
13982;DHT22;7065;50.880;5.502;2023-06-26T06:37:44;19.30;99.90
13982;DHT22;7065;50.880;5.502;2023-06-26T06:40:10;19.30;99.90
13982;DHT22;7065;50.880;5.502;2023-06-26T06:42:36;19.40;99.90
13982;DHT22;7065;50.880;5.502;2023-06-26T06:45:03;19.60;99.90
13982;DHT22;7065;50.880;5.502;2023-06-26T06:47:30;19.70;99.90
13982;DHT22;7065;50.880;5.502;2023-06-26T06:49:55;19.70;99.90
13982;DHT22;7065;50.880;5.502;2023-06-26T06:52:21;19.60;99.90
13982;DHT22;7065;50.880;5.502;2023-06-26T06:54:56;19.50;99.90
13982;DHT22;7065;50.880;5.502;2023-06-26T06:57:24;19.40;99.90
13982;DHT22;7065;50.880;5.502;2023-06-26T06:59:50;19.50;99.90
13982;DHT22;7065;50.880;5.502;2023-06-26T07:02:19;19.70;99.90
13982;DHT22;7065;50.880;5.502;2023-06-26T07:04:45;19.70;99.90
13982;DHT22;7065;50.880;5.502;2023-06-26T07:07:12;19.70;99.90
13982;DHT22;7065;50.880;5.502;2023-06-26T07:09:39;19.50;99.90
13982;DHT22;7065;50.880;5.502;2023-06-26T07:12:05;19.50;99.90
13982;DHT22;7065;50.880;5.502;2023-06-26T07:14:31;19.60;99.90
13982;DHT22;7065;50.880;5.502;2023-06-26T07:16:57;19.60;99.90
13982;DHT22;7065;50.880;5.502;2023-06-26T07:19:22;19.60;99.90
13982;DHT22;7065;50.880;5.502;2023-06-26T07:21:48;19.60;99.90
13982;DHT22;7065;50.880;5.502;2023-06-26T07:24:14;19.70;99.90
13982;DHT22;7065;50.880;5.502;2023-06-26T07:26:40;19.80;99.90
13982;DHT22;7065;50.880;5.502;2023-06-26T07:29:05;19.90;99.90
13982;DHT22;7065;50.880;5.502;2023-06-26T07:31:31;20.00;99.90
13982;DHT22;7065;50.880;5.502;2023-06-26T07:33:57;20.00;99.90
13982;DHT22;7065;50.880;5.502;2023-06-26T07:36:22;20.10;99.90
13982;DHT22;7065;50.880;5.502;2023-06-26T07:38:48;20.10;99.90
13982;DHT22;7065;50.880;5.502;2023-06-26T07:41:14;20.10;99.90
13982;DHT22;7065;50.880;5.502;2023-06-26T07:43:39;20.20;99.90
13982;DHT22;7065;50.880;5.502;2023-06-26T07:46:05;20.20;99.90
13982;DHT22;7065;50.880;5.502;2023-06-26T07:48:31;20.20;99.90
13982;DHT22;7065;50.880;5.502;2023-06-26T07:50:57;20.20;99.90
13982;DHT22;7065;50.880;5.502;2023-06-26T07:53:22;20.30;99.90
13982;DHT22;7065;50.880;5.502;2023-06-26T07:55:48;20.20;99.90
13982;DHT22;7065;50.880;5.502;2023-06-26T07:58:14;20.20;99.90
13982;DHT22;7065;50.880;5.502;2023-06-26T08:00:40;20.20;99.90
13982;DHT22;7065;50.880;5.502;2023-06-26T08:03:06;20.20;99.90
13982;DHT22;7065;50.880;5.502;2023-06-26T08:05:31;20.30;99.90
13982;DHT22;7065;50.880;5.502;2023-06-26T08:07:57;20.30;99.90
13982;DHT22;7065;50.880;5.502;2023-06-26T08:10:23;20.30;99.90
13982;DHT22;7065;50.880;5.502;2023-06-26T08:12:48;20.20;99.90
13982;DHT22;7065;50.880;5.502;2023-06-26T08:15:16;20.20;99.90
13982;DHT22;7065;50.880;5.502;2023-06-26T08:17:41;20.30;99.90
13982;DHT22;7065;50.880;5.502;2023-06-26T08:20:07;20.40;99.90
13982;DHT22;7065;50.880;5.502;2023-06-26T08:22:34;20.40;99.90
13982;DHT22;7065;50.880;5.502;2023-06-26T08:24:59;20.50;99.90
13982;DHT22;7065;50.880;5.502;2023-06-26T08:27:25;20.50;99.90
13982;DHT22;7065;50.880;5.502;2023-06-26T08:29:51;20.60;99.90
13982;DHT22;7065;50.880;5.502;2023-06-26T08:32:17;20.60;99.90
13982;DHT22;7065;50.880;5.502;2023-06-26T08:34:43;20.70;99.90
13982;DHT22;7065;50.880;5.502;2023-06-26T08:37:08;20.70;99.90
13982;DHT22;7065;50.880;5.502;2023-06-26T08:39:35;20.70;99.90
13982;DHT22;7065;50.880;5.502;2023-06-26T08:42:00;20.70;99.90
13982;DHT22;7065;50.880;5.502;2023-06-26T08:44:26;20.80;99.90
13982;DHT22;7065;50.880;5.502;2023-06-26T08:46:52;20.90;99.90
13982;DHT22;7065;50.880;5.502;2023-06-26T08:49:21;20.90;99.90
13982;DHT22;7065;50.880;5.502;2023-06-26T08:51:57;20.90;99.90
13982;DHT22;7065;50.880;5.502;2023-06-26T08:54:30;21.00;99.90
13982;DHT22;7065;50.880;5.502;2023-06-26T08:56:57;21.00;99.90
13982;DHT22;7065;50.880;5.502;2023-06-26T08:59:24;21.10;99.90
13982;DHT22;7065;50.880;5.502;2023-06-26T09:01:50;21.10;99.90
13982;DHT22;7065;50.880;5.502;2023-06-26T09:04:16;21.00;99.90
13982;DHT22;7065;50.880;5.502;2023-06-26T09:06:41;21.00;99.90
13982;DHT22;7065;50.880;5.502;2023-06-26T09:09:07;21.00;99.90
13982;DHT22;7065;50.880;5.502;2023-06-26T09:11:33;21.00;99.90
13982;DHT22;7065;50.880;5.502;2023-06-26T09:13:59;21.10;99.90
13982;DHT22;7065;50.880;5.502;2023-06-26T09:16:26;21.30;99.90
13982;DHT22;7065;50.880;5.502;2023-06-26T09:18:52;21.30;99.90
13982;DHT22;7065;50.880;5.502;2023-06-26T09:21:18;21.30;99.90
13982;DHT22;7065;50.880;5.502;2023-06-26T09:23:44;21.30;99.90
13982;DHT22;7065;50.880;5.502;2023-06-26T09:26:11;21.30;99.90
13982;DHT22;7065;50.880;5.502;2023-06-26T09:28:37;21.40;99.90
13982;DHT22;7065;50.880;5.502;2023-06-26T09:31:05;21.50;99.90
13982;DHT22;7065;50.880;5.502;2023-06-26T09:33:35;21.60;99.90
13982;DHT22;7065;50.880;5.502;2023-06-26T09:36:07;21.60;99.90
13982;DHT22;7065;50.880;5.502;2023-06-26T09:38:35;21.50;99.90
13982;DHT22;7065;50.880;5.502;2023-06-26T09:41:05;21.40;99.90
13982;DHT22;7065;50.880;5.502;2023-06-26T09:43:30;21.60;99.90
13982;DHT22;7065;50.880;5.502;2023-06-26T09:45:57;21.70;99.90
13982;DHT22;7065;50.880;5.502;2023-06-26T09:48:24;21.70;99.90
13982;DHT22;7065;50.880;5.502;2023-06-26T09:50:49;21.70;99.90
13982;DHT22;7065;50.880;5.502;2023-06-26T09:53:15;21.80;99.90
13982;DHT22;7065;50.880;5.502;2023-06-26T09:55:43;21.80;99.90
13982;DHT22;7065;50.880;5.502;2023-06-26T09:58:11;21.70;99.90
13982;DHT22;7065;50.880;5.502;2023-06-26T10:00:41;21.80;99.90
13982;DHT22;7065;50.880;5.502;2023-06-26T10:03:08;21.80;99.90
13982;DHT22;7065;50.880;5.502;2023-06-26T10:05:34;21.90;99.90
13982;DHT22;7065;50.880;5.502;2023-06-26T10:08:01;21.90;99.90
13982;DHT22;7065;50.880;5.502;2023-06-26T10:10:28;21.90;99.90
13982;DHT22;7065;50.880;5.502;2023-06-26T10:12:59;22.00;99.90
13982;DHT22;7065;50.880;5.502;2023-06-26T10:15:27;22.00;99.90
13982;DHT22;7065;50.880;5.502;2023-06-26T10:17:56;22.10;99.90
13982;DHT22;7065;50.880;5.502;2023-06-26T10:20:23;22.00;99.90
13982;DHT22;7065;50.880;5.502;2023-06-26T10:22:50;22.10;99.90
13982;DHT22;7065;50.880;5.502;2023-06-26T10:25:18;22.30;99.90
13982;DHT22;7065;50.880;5.502;2023-06-26T10:27:49;22.30;99.90
13982;DHT22;7065;50.880;5.502;2023-06-26T10:30:20;22.20;99.90
13982;DHT22;7065;50.880;5.502;2023-06-26T10:32:49;22.30;99.90
13982;DHT22;7065;50.880;5.502;2023-06-26T10:35:15;22.30;99.90
13982;DHT22;7065;50.880;5.502;2023-06-26T10:37:45;22.30;99.90
13982;DHT22;7065;50.880;5.502;2023-06-26T10:40:12;22.40;99.90
13982;DHT22;7065;50.880;5.502;2023-06-26T10:42:39;22.50;99.90
13982;DHT22;7065;50.880;5.502;2023-06-26T10:45:11;22.50;99.90
13982;DHT22;7065;50.880;5.502;2023-06-26T10:47:37;22.50;99.90
13982;DHT22;7065;50.880;5.502;2023-06-26T10:50:27;22.70;99.90
13982;DHT22;7065;50.880;5.502;2023-06-26T10:55:54;22.90;99.90
13982;DHT22;7065;50.880;5.502;2023-06-26T10:58:41;22.90;99.90
13982;DHT22;7065;50.880;5.502;2023-06-26T11:01:23;22.90;99.90
13982;DHT22;7065;50.880;5.502;2023-06-26T11:04:04;23.00;99.90
13982;DHT22;7065;50.880;5.502;2023-06-26T11:06:31;23.00;99.90
13982;DHT22;7065;50.880;5.502;2023-06-26T11:14:18;22.70;99.90
13982;DHT22;7065;50.880;5.502;2023-06-26T11:16:44;22.80;99.90
13982;DHT22;7065;50.880;5.502;2023-06-26T11:19:10;23.10;99.90
13982;DHT22;7065;50.880;5.502;2023-06-26T11:21:40;23.10;99.90
13982;DHT22;7065;50.880;5.502;2023-06-26T11:24:10;23.20;99.90
13982;DHT22;7065;50.880;5.502;2023-06-26T11:26:41;23.30;99.90
13982;DHT22;7065;50.880;5.502;2023-06-26T11:29:07;23.30;99.90
13982;DHT22;7065;50.880;5.502;2023-06-26T11:31:38;23.50;99.90
13982;DHT22;7065;50.880;5.502;2023-06-26T11:34:10;23.60;99.90
13982;DHT22;7065;50.880;5.502;2023-06-26T11:36:43;23.50;99.90
13982;DHT22;7065;50.880;5.502;2023-06-26T11:39:11;23.50;99.90
13982;DHT22;7065;50.880;5.502;2023-06-26T11:41:39;23.50;99.90
13982;DHT22;7065;50.880;5.502;2023-06-26T11:44:06;23.40;99.90
13982;DHT22;7065;50.880;5.502;2023-06-26T11:46:34;23.50;99.90
13982;DHT22;7065;50.880;5.502;2023-06-26T11:49:06;23.50;99.90
13982;DHT22;7065;50.880;5.502;2023-06-26T11:51:32;23.30;99.90
13982;DHT22;7065;50.880;5.502;2023-06-26T11:54:01;23.20;99.90
13982;DHT22;7065;50.880;5.502;2023-06-26T11:56:28;23.00;99.90
13982;DHT22;7065;50.880;5.502;2023-06-26T11:59:04;22.80;99.90
13982;DHT22;7065;50.880;5.502;2023-06-26T12:04:01;22.90;99.90
13982;DHT22;7065;50.880;5.502;2023-06-26T12:06:33;22.80;99.90
13982;DHT22;7065;50.880;5.502;2023-06-26T12:09:01;22.80;99.90
13982;DHT22;7065;50.880;5.502;2023-06-26T12:11:29;23.00;99.90
13982;DHT22;7065;50.880;5.502;2023-06-26T12:13:56;23.00;99.90
13982;DHT22;7065;50.880;5.502;2023-06-26T12:16:22;23.10;99.90
13982;DHT22;7065;50.880;5.502;2023-06-26T12:18:47;23.20;99.90
13982;DHT22;7065;50.880;5.502;2023-06-26T12:24:07;23.40;99.90
13982;DHT22;7065;50.880;5.502;2023-06-26T12:26:33;23.30;99.90
13982;DHT22;7065;50.880;5.502;2023-06-26T12:29:10;23.40;99.90
13982;DHT22;7065;50.880;5.502;2023-06-26T12:31:49;23.40;99.90
13982;DHT22;7065;50.880;5.502;2023-06-26T12:34:17;23.40;99.90
13982;DHT22;7065;50.880;5.502;2023-06-26T12:36:52;23.50;99.90
13982;DHT22;7065;50.880;5.502;2023-06-26T12:39:21;23.60;99.90
13982;DHT22;7065;50.880;5.502;2023-06-26T12:41:56;23.80;99.90
13982;DHT22;7065;50.880;5.502;2023-06-26T12:44:29;24.00;99.90
13982;DHT22;7065;50.880;5.502;2023-06-26T12:46:59;24.10;99.90
13982;DHT22;7065;50.880;5.502;2023-06-26T12:49:32;24.20;99.90
13982;DHT22;7065;50.880;5.502;2023-06-26T12:52:00;24.20;99.90
13982;DHT22;7065;50.880;5.502;2023-06-26T12:54:26;24.10;99.90
13982;DHT22;7065;50.880;5.502;2023-06-26T12:56:52;23.90;99.90
13982;DHT22;7065;50.880;5.502;2023-06-26T12:59:18;23.80;99.90
13982;DHT22;7065;50.880;5.502;2023-06-26T13:01:44;23.80;99.90
13982;DHT22;7065;50.880;5.502;2023-06-26T13:04:09;23.90;99.90
13982;DHT22;7065;50.880;5.502;2023-06-26T13:06:36;23.70;99.90
13982;DHT22;7065;50.880;5.502;2023-06-26T13:09:02;23.60;99.90
13982;DHT22;7065;50.880;5.502;2023-06-26T13:11:32;23.70;99.90
13982;DHT22;7065;50.880;5.502;2023-06-26T13:13:59;23.70;99.90
13982;DHT22;7065;50.880;5.502;2023-06-26T13:16:25;23.80;99.90
13982;DHT22;7065;50.880;5.502;2023-06-26T13:18:51;24.00;99.90
13982;DHT22;7065;50.880;5.502;2023-06-26T13:21:17;24.20;99.90
13982;DHT22;7065;50.880;5.502;2023-06-26T13:23:44;24.30;99.90
13982;DHT22;7065;50.880;5.502;2023-06-26T13:26:10;24.50;99.90
13982;DHT22;7065;50.880;5.502;2023-06-26T13:28:36;24.70;99.90
13982;DHT22;7065;50.880;5.502;2023-06-26T13:31:03;24.50;99.90
13982;DHT22;7065;50.880;5.502;2023-06-26T13:33:30;24.50;99.90
13982;DHT22;7065;50.880;5.502;2023-06-26T13:35:55;24.50;99.90
13982;DHT22;7065;50.880;5.502;2023-06-26T13:38:22;24.40;99.90
13982;DHT22;7065;50.880;5.502;2023-06-26T13:40:54;24.30;99.90
13982;DHT22;7065;50.880;5.502;2023-06-26T13:43:22;24.20;99.90
13982;DHT22;7065;50.880;5.502;2023-06-26T13:45:52;24.20;99.90
13982;DHT22;7065;50.880;5.502;2023-06-26T13:48:17;24.40;99.90
13982;DHT22;7065;50.880;5.502;2023-06-26T13:50:44;24.50;99.90
13982;DHT22;7065;50.880;5.502;2023-06-26T13:53:11;24.50;99.90
13982;DHT22;7065;50.880;5.502;2023-06-26T13:55:36;24.20;99.90
13982;DHT22;7065;50.880;5.502;2023-06-26T13:58:04;24.10;99.90
13982;DHT22;7065;50.880;5.502;2023-06-26T14:00:31;23.90;99.90
13982;DHT22;7065;50.880;5.502;2023-06-26T14:03:01;23.90;99.90
13982;DHT22;7065;50.880;5.502;2023-06-26T14:05:29;23.90;99.90
13982;DHT22;7065;50.880;5.502;2023-06-26T14:07:54;24.10;99.90
13982;DHT22;7065;50.880;5.502;2023-06-26T14:10:23;24.40;99.90
13982;DHT22;7065;50.880;5.502;2023-06-26T14:12:49;24.70;99.90
13982;DHT22;7065;50.880;5.502;2023-06-26T14:15:15;24.90;99.90
13982;DHT22;7065;50.880;5.502;2023-06-26T14:17:41;25.00;99.90
13982;DHT22;7065;50.880;5.502;2023-06-26T14:20:08;24.90;99.90
13982;DHT22;7065;50.880;5.502;2023-06-26T14:22:43;24.90;99.90
13982;DHT22;7065;50.880;5.502;2023-06-26T14:25:10;24.50;99.90
13982;DHT22;7065;50.880;5.502;2023-06-26T14:27:36;24.50;99.90
13982;DHT22;7065;50.880;5.502;2023-06-26T14:30:03;24.70;99.90
13982;DHT22;7065;50.880;5.502;2023-06-26T14:32:30;24.80;99.90
13982;DHT22;7065;50.880;5.502;2023-06-26T14:34:58;25.00;99.90
13982;DHT22;7065;50.880;5.502;2023-06-26T14:37:24;25.00;99.90
13982;DHT22;7065;50.880;5.502;2023-06-26T14:39:50;25.20;99.90
13982;DHT22;7065;50.880;5.502;2023-06-26T14:42:16;25.10;99.90
13982;DHT22;7065;50.880;5.502;2023-06-26T14:44:42;25.10;99.90
13982;DHT22;7065;50.880;5.502;2023-06-26T14:47:08;25.20;99.90
13982;DHT22;7065;50.880;5.502;2023-06-26T14:49:34;25.40;99.90
13982;DHT22;7065;50.880;5.502;2023-06-26T14:51:59;25.50;99.90
13982;DHT22;7065;50.880;5.502;2023-06-26T14:54:25;25.40;99.90
13982;DHT22;7065;50.880;5.502;2023-06-26T14:56:51;25.40;99.90
13982;DHT22;7065;50.880;5.502;2023-06-26T14:59:17;25.20;99.90
13982;DHT22;7065;50.880;5.502;2023-06-26T15:01:42;24.90;99.90
13982;DHT22;7065;50.880;5.502;2023-06-26T15:04:08;25.10;99.90
13982;DHT22;7065;50.880;5.502;2023-06-26T15:06:35;25.20;99.90
13982;DHT22;7065;50.880;5.502;2023-06-26T15:09:01;25.30;99.90
13982;DHT22;7065;50.880;5.502;2023-06-26T15:11:29;25.30;99.90
13982;DHT22;7065;50.880;5.502;2023-06-26T15:13:55;25.30;99.90
13982;DHT22;7065;50.880;5.502;2023-06-26T15:16:21;25.30;99.90
13982;DHT22;7065;50.880;5.502;2023-06-26T15:18:47;25.20;99.90
13982;DHT22;7065;50.880;5.502;2023-06-26T15:21:15;25.10;99.90
13982;DHT22;7065;50.880;5.502;2023-06-26T15:23:41;25.00;99.90
13982;DHT22;7065;50.880;5.502;2023-06-26T15:26:07;24.70;99.90
13982;DHT22;7065;50.880;5.502;2023-06-26T15:28:33;24.80;99.90
13982;DHT22;7065;50.880;5.502;2023-06-26T15:30:59;25.00;99.90
13982;DHT22;7065;50.880;5.502;2023-06-26T15:33:24;25.10;99.90
13982;DHT22;7065;50.880;5.502;2023-06-26T15:35:50;25.20;99.90
13982;DHT22;7065;50.880;5.502;2023-06-26T15:38:16;25.50;99.90
13982;DHT22;7065;50.880;5.502;2023-06-26T15:40:41;26.10;99.90
13982;DHT22;7065;50.880;5.502;2023-06-26T15:43:07;26.90;99.90
13982;DHT22;7065;50.880;5.502;2023-06-26T15:45:33;27.30;99.90
13982;DHT22;7065;50.880;5.502;2023-06-26T15:47:58;27.20;99.90
13982;DHT22;7065;50.880;5.502;2023-06-26T15:50:24;26.90;99.90
13982;DHT22;7065;50.880;5.502;2023-06-26T15:52:50;26.70;99.90
13982;DHT22;7065;50.880;5.502;2023-06-26T15:55:16;26.40;99.90
13982;DHT22;7065;50.880;5.502;2023-06-26T15:57:42;26.00;99.90